Time;durP1;ratioP1;P1;durP2;ratioP2;P2;SDS_P1;SDS_P2;PMS_P1;PMS_P2;Temp;Humidity;BMP_temperature;BMP_pressure;BME280_temperature;BME280_humidity;BME280_pressure;Samples;Min_cycle;Max_cycle;Signal;HPM_P1;HPM_P2
2023/08/01 00:00:15;;;;;;;6.90;4.17;;;17.90;99.90;;;18.48;100.00;96810.22;5024014;28;20553;-83
2023/08/01 00:02:46;;;;;;;5.67;3.33;;;18.00;99.90;;;18.49;100.00;96794.06;5022004;28;20863;-83
2023/08/01 00:05:15;;;;;;;6.47;3.47;;;17.90;99.90;;;18.46;100.00;96789.31;5023968;28;20545;-82
2023/08/01 00:07:46;;;;;;;5.00;3.17;;;17.90;99.90;;;18.47;100.00;96800.66;5024264;28;20553;-82
2023/08/01 00:10:18;;;;;;;9.83;3.10;;;17.90;99.90;;;18.47;100.00;96805.97;5022729;28;20944;-83
2023/08/01 00:12:47;;;;;;;6.87;3.23;;;17.90;99.90;;;18.45;100.00;96808.91;5023355;28;20473;-83
2023/08/01 00:15:17;;;;;;;6.43;3.37;;;17.90;99.90;;;18.48;100.00;96813.66;5020366;28;20547;-83
2023/08/01 00:17:48;;;;;;;5.53;2.80;;;17.90;99.90;;;18.48;100.00;96816.28;5022301;28;20489;-83
2023/08/01 00:20:19;;;;;;;5.43;2.90;;;17.90;99.90;;;18.44;100.00;96817.09;5021398;28;20478;-83
2023/08/01 00:22:48;;;;;;;6.60;3.00;;;18.00;99.90;;;18.45;100.00;96819.47;5019673;28;20470;-82
2023/08/01 00:25:20;;;;;;;6.73;3.10;;;17.90;99.90;;;18.45;100.00;96819.47;5017738;28;20937;-82
2023/08/01 00:27:51;;;;;;;4.00;3.20;;;17.90;99.90;;;18.49;100.00;96814.44;5019048;28;20476;-82
2023/08/01 00:30:22;;;;;;;7.70;2.53;;;17.90;99.90;;;18.48;100.00;96795.13;5017750;28;21099;-83
2023/08/01 00:32:52;;;;;;;5.73;3.10;;;17.90;99.90;;;18.52;100.00;96790.13;5019443;28;20478;-82
2023/08/01 00:35:23;;;;;;;7.53;3.03;;;17.90;99.90;;;18.52;100.00;96777.66;5017623;28;20529;-82
2023/08/01 00:37:54;;;;;;;3.60;3.03;;;17.90;99.90;;;18.56;100.00;96772.63;5019770;28;20556;-84
2023/08/01 00:40:25;;;;;;;5.60;2.47;;;17.90;99.90;;;18.53;100.00;96768.66;5018983;28;20474;-83
2023/08/01 00:42:56;;;;;;;6.70;2.90;;;18.00;99.90;;;18.50;100.00;96776.31;5018225;28;20469;-83
2023/08/01 00:45:27;;;;;;;4.90;2.77;;;18.00;99.90;;;18.52;100.00;96761.78;5017264;28;20476;-84
2023/08/01 00:47:57;;;;;;;9.77;3.10;;;17.90;99.90;;;18.54;100.00;96775.53;5019789;28;20563;-83
2023/08/01 00:50:27;;;;;;;4.13;2.70;;;17.90;99.90;;;18.55;100.00;96778.97;5020596;28;20498;-83
2023/08/01 00:52:57;;;;;;;3.70;2.33;;;17.90;99.90;;;18.51;100.00;96783.22;5019454;28;20992;-83
2023/08/01 00:55:31;;;;;;;3.73;2.23;;;18.00;99.90;;;18.50;100.00;96785.06;5021948;28;20461;-83
2023/08/01 00:58:01;;;;;;;4.13;2.10;;;18.00;99.90;;;18.46;100.00;96793.81;5020308;28;20490;-83
2023/08/01 01:00:32;;;;;;;5.10;2.37;;;17.90;99.90;;;18.48;100.00;96787.19;5021740;28;20544;-83
2023/08/01 01:03:03;;;;;;;3.13;2.23;;;17.80;99.90;;;18.46;100.00;96765.47;5017589;28;20561;-82
2023/08/01 01:05:40;;;;;;;7.00;2.40;;;17.80;99.90;;;18.49;100.00;96741.13;5017401;28;20506;-82
2023/08/01 01:08:09;;;;;;;2.80;2.30;;;17.80;99.90;;;18.48;100.00;96736.06;5018613;28;20549;-82
2023/08/01 01:10:41;;;;;;;2.93;1.70;;;17.80;99.90;;;18.45;100.00;96726.03;5017912;28;20454;-82
2023/08/01 01:13:10;;;;;;;1.63;1.53;;;17.90;99.90;;;18.42;100.00;96716.78;5017410;28;20470;-83
2023/08/01 01:15:40;;;;;;;3.00;1.80;;;17.90;99.90;;;18.47;100.00;96708.81;5017197;28;20940;-83
2023/08/01 01:18:09;;;;;;;2.00;1.63;;;17.80;99.90;;;18.48;100.00;96706.94;5016959;28;20502;-83
2023/08/01 01:20:40;;;;;;;3.60;1.80;;;17.80;99.90;;;18.43;100.00;96715.69;5016576;28;20459;-83
2023/08/01 01:23:12;;;;;;;3.77;1.43;;;17.80;99.90;;;18.45;100.00;96716.22;5020741;28;21008;-82
2023/08/01 01:25:43;;;;;;;3.00;1.77;;;17.80;99.90;;;18.44;100.00;96701.41;5019836;28;20466;-82
2023/08/01 01:28:14;;;;;;;1.50;1.00;;;17.80;99.90;;;18.41;100.00;96694.00;5020992;28;21471;-82
2023/08/01 01:30:44;;;;;;;3.80;1.40;;;17.90;99.90;;;18.43;100.00;96688.44;5018162;28;20923;-83
2023/08/01 01:33:15;;;;;;;3.23;1.93;;;17.90;99.90;;;18.47;100.00;96678.88;5019234;28;20462;-83
2023/08/01 01:35:46;;;;;;;3.20;1.20;;;17.80;99.90;;;18.45;100.00;96665.94;5018808;28;20472;-82
2023/08/01 01:38:14;;;;;;;16.97;1.50;;;17.80;99.90;;;18.42;100.00;96677.06;5020306;28;20902;-85
2023/08/01 01:40:44;;;;;;;3.10;1.13;;;17.90;99.90;;;18.45;100.00;96681.03;5020114;28;21092;-83
2023/08/01 01:43:13;;;;;;;1.20;0.90;;;17.80;99.90;;;18.42;100.00;96679.72;5020256;28;20485;-83
2023/08/01 01:45:43;;;;;;;1.40;1.00;;;17.80;99.90;;;18.42;100.00;96682.38;5019652;28;20472;-83
2023/08/01 01:48:13;;;;;;;2.40;1.20;;;17.90;99.90;;;18.46;100.00;96672.03;5020049;28;20466;-83
2023/08/01 01:50:44;;;;;;;1.40;1.00;;;17.80;99.90;;;18.44;100.00;96647.66;5017578;28;20968;-83
2023/08/01 01:53:15;;;;;;;1.40;0.93;;;17.90;99.90;;;18.41;100.00;96651.66;5019412;28;21092;-83
2023/08/01 01:55:45;;;;;;;1.80;1.20;;;17.90;99.90;;;18.43;100.00;96646.09;5023118;28;20809;-83
2023/08/01 01:58:14;;;;;;;2.50;1.07;;;17.80;99.90;;;18.43;100.00;96633.63;5021532;28;20489;-83
2023/08/01 02:00:45;;;;;;;1.73;1.00;;;17.90;99.90;;;18.45;100.00;96625.41;5019345;28;20454;-83
2023/08/01 02:03:14;;;;;;;1.60;1.00;;;17.80;99.90;;;18.45;100.00;96622.78;5023781;28;20471;-83
2023/08/01 02:05:47;;;;;;;1.70;1.00;;;17.90;99.90;;;18.47;100.00;96621.44;5022322;28;20553;-83
2023/08/01 02:08:18;;;;;;;2.30;1.13;;;17.90;99.90;;;18.47;100.00;96631.22;5022424;28;20464;-83
2023/08/01 02:10:49;;;;;;;1.93;1.30;;;17.90;99.90;;;18.44;100.00;96621.97;5021570;28;20472;-82
2023/08/01 02:13:18;;;;;;;1.70;1.30;;;17.90;99.90;;;18.43;100.00;96624.91;5021644;28;20461;-83
2023/08/01 02:15:49;;;;;;;1.10;1.00;;;17.90;99.90;;;18.41;100.00;96630.47;5032522;28;20476;-82
2023/08/01 02:18:19;;;;;;;2.50;1.30;;;18.00;99.90;;;18.41;100.00;96627.03;5022291;28;20580;-82
2023/08/01 02:20:50;;;;;;;1.47;1.20;;;17.90;99.90;;;18.41;100.00;96619.88;5020843;28;20455;-83
2023/08/01 02:23:20;;;;;;;1.60;1.40;;;17.80;99.90;;;18.42;100.00;96615.38;5021537;28;21425;-83
2023/08/01 02:25:50;;;;;;;2.13;1.33;;;17.80;99.90;;;18.46;100.00;96608.50;5018510;28;20470;-83
2023/08/01 02:28:21;;;;;;;1.80;1.37;;;17.80;99.90;;;18.45;100.00;96602.41;5019128;28;20483;-82
2023/08/01 02:30:52;;;;;;;2.13;1.37;;;17.80;99.90;;;18.45;100.00;96607.69;5020132;28;21576;-83
2023/08/01 02:33:21;;;;;;;1.53;1.30;;;17.70;99.90;;;18.45;100.00;96607.69;5019034;28;20497;-83
2023/08/01 02:35:53;;;;;;;3.07;1.60;;;17.90;99.90;;;18.48;100.00;96601.84;5021516;28;20523;-83
2023/08/01 02:38:23;;;;;;;2.53;1.57;;;17.80;99.90;;;18.49;100.00;96621.19;5022604;28;20490;-83
2023/08/01 02:40:53;;;;;;;4.60;1.47;;;17.80;99.90;;;18.51;100.00;96619.88;5021144;28;20469;-82
2023/08/01 02:43:23;;;;;;;3.33;1.77;;;17.80;99.90;;;18.48;100.00;96616.94;5021168;28;20461;-83
2023/08/01 02:45:52;;;;;;;2.90;1.60;;;17.70;99.90;;;18.42;100.00;96624.13;5022042;28;20454;-82
2023/08/01 02:48:22;;;;;;;1.53;1.43;;;17.90;99.90;;;18.45;100.00;96628.88;5020757;28;20895;-83
2023/08/01 02:50:53;;;;;;;2.90;1.47;;;17.80;99.90;;;18.48;100.00;96630.16;5020391;28;20842;-83
2023/08/01 02:53:24;;;;;;;3.27;1.50;;;17.80;99.90;;;18.46;100.00;96635.75;5021640;28;20996;-83
2023/08/01 02:55:53;;;;;;;3.97;1.70;;;17.90;99.90;;;18.44;100.00;96613.25;5020715;28;21002;-83
2023/08/01 02:58:22;;;;;;;4.43;1.70;;;17.90;99.90;;;18.42;100.00;96596.84;5022478;28;20497;-83
2023/08/01 03:00:52;;;;;;;1.90;1.20;;;17.90;99.90;;;18.45;100.00;96596.31;5021319;28;20964;-83
2023/08/01 03:03:22;;;;;;;3.93;1.50;;;17.80;99.90;;;18.45;100.00;96591.81;5023415;28;20533;-82
2023/08/01 03:05:53;;;;;;;2.53;1.60;;;17.80;99.90;;;18.46;100.00;96593.41;5022179;28;20816;-83
2023/08/01 03:08:24;;;;;;;1.30;1.20;;;17.80;99.90;;;18.46;100.00;96608.50;5021395;28;20469;-86
2023/08/01 03:10:55;;;;;;;4.13;2.10;;;17.80;99.90;;;18.46;100.00;96589.94;5022322;28;20474;-82
2023/08/01 03:13:26;;;;;;;2.03;1.40;;;17.80;99.90;;;18.46;100.00;96600.53;5020227;28;20480;-83
2023/08/01 03:15:56;;;;;;;3.10;1.20;;;17.90;99.90;;;18.44;100.00;96592.06;5020784;28;20479;-83
2023/08/01 03:18:26;;;;;;;2.13;1.40;;;17.90;99.90;;;18.45;100.00;96602.41;5020447;28;20474;-83
2023/08/01 03:20:58;;;;;;;3.03;1.40;;;17.80;99.90;;;18.47;100.00;96594.16;5021710;28;20481;-84
2023/08/01 03:23:28;;;;;;;1.63;1.20;;;17.80;99.90;;;18.47;100.00;96583.56;5021752;28;20838;-83
2023/08/01 03:25:58;;;;;;;5.30;1.40;;;17.80;99.90;;;18.44;100.00;96582.28;5020124;28;20550;-83
2023/08/01 03:28:29;;;;;;;2.17;1.27;;;17.80;99.90;;;18.40;100.00;96591.03;5022447;28;20465;-81
2023/08/01 03:30:59;;;;;;;1.50;1.30;;;17.90;99.90;;;18.39;100.00;96581.53;5021150;28;20483;-82
2023/08/01 03:33:29;;;;;;;1.37;0.90;;;17.90;99.90;;;18.38;100.00;96571.97;5025132;28;20466;-82
2023/08/01 03:35:59;;;;;;;1.00;0.90;;;17.80;99.90;;;18.40;100.00;96568.00;5022187;28;20462;-82
2023/08/01 03:38:30;;;;;;;1.13;0.90;;;17.80;99.90;;;18.40;100.00;96568.00;5020788;28;20458;-82
2023/08/01 03:41:00;;;;;;;1.77;1.17;;;17.80;99.90;;;18.43;100.00;96572.75;5021664;28;20469;-82
2023/08/01 03:43:30;;;;;;;1.50;1.00;;;17.70;99.90;;;18.43;100.00;96572.75;5023121;28;20466;-83
2023/08/01 03:46:00;;;;;;;1.80;1.07;;;17.70;99.90;;;18.43;100.00;96566.69;5024338;28;20470;-83
2023/08/01 03:48:32;;;;;;;2.03;1.10;;;17.70;99.90;;;18.42;100.00;96571.19;5023781;28;20586;-83
2023/08/01 03:51:04;;;;;;;1.67;1.17;;;17.70;99.90;;;18.38;100.00;96574.63;5022704;28;20478;-84
2023/08/01 03:53:36;;;;;;;3.37;1.93;;;17.80;99.90;;;18.38;100.00;96580.72;5026228;28;20996;-83
2023/08/01 03:56:06;;;;;;;4.10;1.80;;;17.80;99.90;;;18.37;100.00;96567.75;5021118;28;20952;-81
2023/08/01 03:58:35;;;;;;;2.83;1.13;;;17.80;99.90;;;18.40;100.00;96575.94;5023627;28;20860;-82
2023/08/01 04:01:06;;;;;;;2.20;0.90;;;17.70;99.90;;;18.35;100.00;96583.91;5022602;28;20964;-83
2023/08/01 04:03:35;;;;;;;6.30;1.13;;;17.70;99.90;;;18.33;100.00;96583.38;5020090;28;20462;-82
2023/08/01 04:06:08;;;;;;;1.30;0.90;;;17.80;99.90;;;18.33;100.00;96593.97;5020946;28;20515;-82
2023/08/01 04:08:39;;;;;;;1.00;0.70;;;17.70;99.90;;;18.31;100.00;96598.75;5020692;28;20945;-81
2023/08/01 04:11:11;;;;;;;1.20;0.93;;;17.70;99.90;;;18.32;100.00;96594.25;5020660;28;20466;-81
2023/08/01 04:13:41;;;;;;;0.97;0.87;;;17.70;99.90;;;18.33;100.00;96567.50;5022501;28;20888;-80
2023/08/01 04:16:10;;;;;;;1.53;0.97;;;17.70;99.90;;;18.35;100.00;96548.72;5019269;28;20471;-82
2023/08/01 04:18:40;;;;;;;7.20;4.67;;;17.60;99.90;;;18.37;100.00;96533.34;5021406;28;20466;-85
2023/08/01 04:21:10;;;;;;;1.20;1.00;;;17.60;99.90;;;18.26;100.00;96529.94;5019456;28;20466;-83
2023/08/01 04:23:40;;;;;;;1.30;1.00;;;17.80;99.90;;;18.26;100.00;96513.28;5020910;28;20474;-82
2023/08/01 04:26:11;;;;;;;1.30;1.00;;;17.70;99.90;;;18.24;100.00;96528.66;5022716;28;21059;-82
2023/08/01 04:28:41;;;;;;;0.90;0.70;;;17.70;99.90;;;18.21;100.00;96519.41;5018864;28;20461;-82
2023/08/01 04:31:11;;;;;;;87.93;46.77;;;17.70;99.90;;;18.21;100.00;96532.63;5020385;28;20474;-82
2023/08/01 04:33:41;;;;;;;8.67;5.63;;;17.70;99.90;;;18.22;100.00;96536.09;5019094;28;20498;-82
2023/08/01 04:36:13;;;;;;;1.27;0.93;;;17.60;99.90;;;18.18;100.00;96543.78;5021722;28;20953;-82
2023/08/01 04:38:42;;;;;;;2.07;1.47;;;17.70;99.90;;;18.16;100.00;96551.16;5019786;28;20573;-83
2023/08/01 04:41:11;;;;;;;1.37;1.00;;;17.70;99.90;;;18.15;100.00;96546.97;5023050;28;20493;-81
2023/08/01 04:43:41;;;;;;;1.07;0.90;;;17.60;99.90;;;18.17;100.00;96547.47;5023284;28;20458;-80
2023/08/01 04:46:12;;;;;;;2.60;0.80;;;17.60;99.90;;;18.09;100.00;96558.59;5022964;28;20529;-81
2023/08/01 04:48:44;;;;;;;1.50;0.80;;;17.60;99.90;;;18.11;100.00;96572.38;5023406;28;20453;-81
2023/08/01 04:51:15;;;;;;;1.33;0.90;;;17.60;99.90;;;18.10;100.00;96568.94;5026635;28;20955;-81
2023/08/01 04:53:45;;;;;;;1.00;0.90;;;17.60;99.90;;;18.15;100.00;96525.00;5025291;28;20850;-81
2023/08/01 04:56:15;;;;;;;0.90;0.80;;;17.50;99.90;;;18.13;100.00;96498.81;5025836;28;21135;-81
2023/08/01 04:58:44;;;;;;;1.10;0.83;;;17.60;99.90;;;18.11;100.00;96556.50;5025572;28;20459;-81
2023/08/01 05:01:15;;;;;;;0.90;0.70;;;17.60;99.90;;;18.10;100.00;96536.38;5025903;28;20497;-81
2023/08/01 05:03:45;;;;;;;1.13;0.77;;;17.60;99.90;;;18.07;100.00;96526.34;5024041;28;20454;-81
2023/08/01 05:06:17;;;;;;;2.90;1.00;;;17.40;99.90;;;18.05;100.00;96523.97;5024196;28;20461;-81
2023/08/01 05:08:48;;;;;;;0.80;0.70;;;17.50;99.90;;;18.04;100.00;96533.00;5023856;28;20542;-81
2023/08/01 05:11:17;;;;;;;1.77;0.80;;;17.50;99.90;;;18.01;100.00;96543.31;5023803;28;20900;-81
2023/08/01 05:13:47;;;;;;;1.60;0.90;;;17.50;99.90;;;18.06;100.00;96540.63;5025158;28;20475;-81
2023/08/01 05:16:17;;;;;;;1.27;0.90;;;17.40;99.90;;;18.13;100.00;96550.94;5022387;28;20467;-81
2023/08/01 05:18:48;;;;;;;1.20;0.80;;;17.40;99.90;;;18.10;100.00;96562.84;5025919;28;20466;-81
2023/08/01 05:21:19;;;;;;;1.60;1.00;;;17.50;99.90;;;18.13;100.00;96558.84;5023651;28;20495;-82
2023/08/01 05:23:50;;;;;;;1.00;0.90;;;17.40;99.90;;;18.13;100.00;96557.00;5023130;28;20817;-81
2023/08/01 05:26:19;;;;;;;0.90;0.70;;;17.50;99.90;;;18.18;100.00;96558.84;5021725;28;20470;-80
2023/08/01 05:28:50;;;;;;;1.77;1.20;;;17.50;99.90;;;18.18;100.00;96543.78;5021266;28;20461;-82
2023/08/01 05:31:21;;;;;;;1.13;0.80;;;17.50;99.90;;;18.17;100.00;96536.09;5024411;28;20477;-81
2023/08/01 05:33:52;;;;;;;1.80;0.80;;;17.50;99.90;;;18.17;100.00;96558.06;5024417;28;20465;-80
2023/08/01 05:36:24;;;;;;;1.97;0.83;;;17.40;99.90;;;18.14;100.00;96574.47;5027038;28;20466;-81
2023/08/01 05:38:54;;;;;;;1.10;0.90;;;17.40;99.90;;;18.12;100.00;96560.72;5024311;28;20466;-80
2023/08/01 05:41:24;;;;;;;1.47;0.93;;;17.40;99.90;;;18.11;100.00;96548.56;5026304;28;20497;-80
2023/08/01 05:43:53;;;;;;;1.87;0.73;;;17.50;99.90;;;18.11;100.00;96553.84;5024958;28;20512;-82
2023/08/01 05:46:24;;;;;;;1.97;1.00;;;17.50;99.90;;;18.14;100.00;96574.47;5026110;28;20472;-81
2023/08/01 05:48:53;;;;;;;0.93;0.80;;;17.50;99.90;;;18.14;100.00;96577.13;5027076;28;20478;-81
2023/08/01 05:51:25;;;;;;;1.30;0.90;;;17.60;99.90;;;18.10;100.00;96578.72;5028481;28;20568;-80
2023/08/01 05:53:54;;;;;;;0.90;0.80;;;17.60;99.90;;;18.17;100.00;96595.09;5024316;28;20470;-79
2023/08/01 05:56:24;;;;;;;0.83;0.70;;;17.50;99.90;;;18.10;100.00;96584.81;5023897;28;20479;-81
2023/08/01 05:58:55;;;;;;;1.00;0.80;;;17.50;99.90;;;18.11;100.00;96588.25;5024746;28;20470;-81
2023/08/01 06:01:24;;;;;;;0.80;0.70;;;17.60;99.90;;;18.13;100.00;96585.31;5025980;28;20504;-81
2023/08/01 06:03:54;;;;;;;1.17;0.80;;;17.40;99.90;;;18.14;100.00;96595.66;5024213;28;20976;-82
2023/08/01 06:06:26;;;;;;;0.90;0.77;;;17.50;99.90;;;18.18;100.00;96602.00;5023123;28;20553;-84
2023/08/01 06:08:55;;;;;;;1.03;0.70;;;17.60;99.90;;;18.22;100.00;96600.38;5025703;28;20479;-81
2023/08/01 06:11:26;;;;;;;0.80;0.70;;;17.50;99.90;;;18.16;100.00;96604.09;5025765;28;20482;-81
2023/08/01 06:13:57;;;;;;;0.90;0.70;;;17.60;99.90;;;18.21;100.00;96612.03;5025743;28;20469;-81
2023/08/01 06:16:27;;;;;;;2.40;0.70;;;17.60;99.90;;;18.22;100.00;96616.28;5026056;28;20476;-81
2023/08/01 06:18:57;;;;;;;1.13;0.80;;;17.60;99.90;;;18.24;100.00;96627.38;5025550;28;20470;-81
2023/08/01 06:21:28;;;;;;;0.90;0.70;;;17.50;99.90;;;18.20;100.00;96628.97;5025662;28;20572;-81
2023/08/01 06:23:57;;;;;;;1.30;0.70;;;17.60;99.90;;;18.21;100.00;96630.56;5026900;28;20484;-81
2023/08/01 06:26:27;;;;;;;1.07;0.77;;;17.60;99.90;;;18.23;100.00;96623.13;5024910;28;20983;-81
2023/08/01 06:28:57;;;;;;;0.90;0.70;;;17.60;99.90;;;18.25;100.00;96636.09;5027712;28;20524;-81
2023/08/01 06:31:29;;;;;;;0.80;0.70;;;17.60;99.90;;;18.27;100.00;96637.41;5027727;28;20462;-81
2023/08/01 06:33:58;;;;;;;0.90;0.70;;;17.60;99.90;;;18.28;100.00;96633.69;5026579;28;20468;-81
2023/08/01 06:36:32;;;;;;;15.33;0.90;;;17.70;99.90;;;18.25;100.00;96633.44;5026996;28;20472;-80
2023/08/01 06:39:04;;;;;;;1.27;0.70;;;17.70;99.90;;;18.10;100.00;96632.44;5025652;28;21042;-81
2023/08/01 06:41:34;;;;;;;1.47;0.83;;;17.70;99.90;;;18.05;100.00;96635.09;5025677;28;20490;-81
2023/08/01 06:44:04;;;;;;;1.00;0.70;;;17.60;99.90;;;17.94;100.00;96638.03;5027896;28;20469;-81
2023/08/01 06:46:34;;;;;;;1.30;0.73;;;17.50;99.90;;;17.98;100.00;96639.88;5026626;28;20653;-80
2023/08/01 06:49:04;;;;;;;1.20;0.77;;;17.40;99.90;;;17.99;100.00;96644.09;5026817;28;21002;-81
2023/08/01 06:51:35;;;;;;;3.53;0.73;;;17.40;99.90;;;17.96;100.00;96641.19;5025737;28;21023;-81
2023/08/01 06:54:04;;;;;;;2.00;0.70;;;17.40;99.90;;;17.94;100.00;96646.78;5026259;28;20552;-81
2023/08/01 06:56:34;;;;;;;1.53;0.90;;;17.30;99.90;;;17.96;100.00;96657.88;5026142;28;20949;-81
2023/08/01 06:59:05;;;;;;;2.00;0.83;;;17.30;99.90;;;17.97;100.00;96651.53;5026235;28;20461;-81
2023/08/01 07:01:38;;;;;;;3.40;0.93;;;17.20;99.90;;;17.96;100.00;96655.22;5026465;28;20505;-81
2023/08/01 07:04:08;;;;;;;1.70;0.87;;;17.30;99.90;;;17.99;100.00;96659.19;5026227;28;20520;-81
2023/08/01 07:06:40;;;;;;;3.33;0.90;;;17.30;99.90;;;17.97;100.00;96663.97;5025225;28;20461;-81
2023/08/01 07:09:11;;;;;;;2.03;0.90;;;17.30;99.90;;;17.91;100.00;96670.31;5025534;28;20469;-81
2023/08/01 07:11:41;;;;;;;2.73;1.30;;;17.30;99.90;;;17.84;100.00;96678.50;5024726;28;20843;-81
2023/08/01 07:14:11;;;;;;;5.00;1.50;;;17.30;99.90;;;17.81;100.00;96686.19;5023680;28;20478;-81
2023/08/01 07:16:40;;;;;;;8.07;2.03;;;17.30;99.90;;;17.79;100.00;96681.16;5024754;28;20484;-81
2023/08/01 07:19:10;;;;;;;1.80;1.20;;;17.30;99.90;;;17.73;100.00;96679.59;5021154;28;20458;-81
2023/08/01 07:21:44;;;;;;;1.10;0.90;;;17.10;99.90;;;17.70;100.00;96684.63;5037555;28;20559;-81
2023/08/01 07:24:14;;;;;;;1.80;1.23;;;17.20;99.90;;;17.73;100.00;96684.09;5024315;28;20466;-81
2023/08/01 07:26:44;;;;;;;4.00;1.23;;;17.10;99.90;;;17.68;100.00;96686.72;5023803;28;20564;-81
2023/08/01 07:29:15;;;;;;;5.23;1.00;;;17.10;99.90;;;17.70;100.00;96692.56;5023176;28;20473;-81
2023/08/01 07:31:45;;;;;;;1.97;1.10;;;17.20;99.90;;;17.71;100.00;96696.78;5022930;28;20463;-81
2023/08/01 07:34:17;;;;;;;1.40;0.97;;;17.30;99.90;;;17.78;100.00;96702.59;5027978;28;20469;-81
2023/08/01 07:36:50;;;;;;;2.30;1.10;;;17.20;99.90;;;17.82;100.00;96703.63;5026174;28;20822;-81
2023/08/01 07:39:21;;;;;;;1.20;1.10;;;17.30;99.90;;;17.82;100.00;96701.00;5024423;28;20480;-82
2023/08/01 07:41:52;;;;;;;1.50;1.23;;;17.20;99.90;;;17.79;100.00;96728.78;5024894;28;20510;-81
2023/08/01 07:44:22;;;;;;;1.53;1.20;;;17.30;99.90;;;17.82;100.00;96724.81;5024856;28;20474;-81
2023/08/01 07:46:53;;;;;;;3.53;1.33;;;17.40;99.90;;;17.78;100.00;96731.69;5025312;28;20984;-81
2023/08/01 07:49:22;;;;;;;2.13;1.50;;;17.20;99.90;;;17.83;100.00;96724.56;5022538;28;20468;-81
2023/08/01 07:51:54;;;;;;;1.93;1.33;;;17.30;99.90;;;17.74;100.00;96733.25;5020735;28;20573;-80
2023/08/01 07:54:24;;;;;;;1.50;1.40;;;17.40;99.90;;;17.73;100.00;96732.50;5024746;28;20466;-81
2023/08/01 07:56:55;;;;;;;4.30;1.20;;;17.40;99.90;;;17.73;100.00;96734.34;5026490;28;20839;-81
2023/08/01 07:59:25;;;;;;;1.60;1.37;;;17.40;99.90;;;17.72;100.00;96736.19;5024621;28;20830;-81
2023/08/01 08:01:54;;;;;;;1.90;1.13;;;17.40;99.90;;;17.74;100.00;96747.28;5025106;28;20500;-81
2023/08/01 08:04:25;;;;;;;1.73;1.10;;;17.30;99.90;;;17.79;100.00;96749.13;5024981;28;20880;-81
2023/08/01 08:06:59;;;;;;;2.60;1.33;;;17.30;99.90;;;17.84;100.00;96747.28;5038066;28;20469;-81
2023/08/01 08:09:31;;;;;;;1.50;1.10;;;17.30;99.90;;;17.92;100.00;96761.81;5025839;28;21007;-82
2023/08/01 08:12:00;;;;;;;2.10;1.33;;;17.30;99.90;;;17.94;100.00;96751.78;5024890;28;20467;-81
2023/08/01 08:14:30;;;;;;;3.87;1.70;;;17.30;99.90;;;17.84;100.00;96754.44;5023431;28;20525;-81
2023/08/01 08:17:01;;;;;;;2.27;1.30;;;17.50;99.90;;;17.91;100.00;96757.63;5025185;28;20466;-81
2023/08/01 08:19:31;;;;;;;1.50;1.40;;;17.50;99.90;;;17.99;100.00;96759.72;5023776;28;20500;-81
2023/08/01 08:22:04;;;;;;;2.80;1.30;;;17.50;99.90;;;18.10;100.00;96763.94;5023055;28;20859;-81
2023/08/01 08:24:33;;;;;;;1.90;1.33;;;17.50;99.90;;;18.18;100.00;96762.63;5024151;28;20466;-81
2023/08/01 08:27:07;;;;;;;2.20;1.30;;;17.60;99.90;;;18.28;100.00;96770.53;5024215;28;20464;-83
2023/08/01 08:29:37;;;;;;;6.30;1.50;;;17.80;99.90;;;18.36;100.00;96778.72;5024636;28;20475;-81
2023/08/01 08:32:09;;;;;;;2.47;1.20;;;17.90;99.90;;;18.41;100.00;96783.22;5023999;28;20826;-82
2023/08/01 08:34:39;;;;;;;3.53;1.27;;;17.80;99.90;;;18.45;100.00;96792.22;5022539;28;20465;-81
2023/08/01 08:37:11;;;;;;;2.90;1.60;;;17.90;99.90;;;18.46;100.00;96793.81;5022609;28;20545;-82
2023/08/01 08:39:42;;;;;;;2.17;1.23;;;18.10;99.90;;;18.48;100.00;96797.75;5024286;28;20467;-82
2023/08/01 08:42:12;;;;;;;2.90;1.40;;;18.10;99.90;;;18.46;100.00;96799.91;5023147;28;20504;-82
2023/08/01 08:44:44;;;;;;;4.00;1.43;;;17.90;99.90;;;18.42;100.00;96798.03;5023747;28;20464;-82
2023/08/01 08:47:18;;;;;;;1.63;1.50;;;18.00;99.90;;;18.47;100.00;96793.53;5024941;28;20828;-82
2023/08/01 08:49:50;;;;;;;7.53;1.70;;;17.90;99.90;;;18.53;100.00;96794.34;5024127;28;20462;-81
2023/08/01 08:52:21;;;;;;;2.50;1.60;;;17.90;99.90;;;18.57;100.00;96800.69;5023621;28;20471;-82
2023/08/01 08:54:53;;;;;;;2.27;1.33;;;18.00;99.90;;;18.62;100.00;96790.09;5023377;28;20490;-82
2023/08/01 08:57:24;;;;;;;2.50;1.40;;;18.10;99.90;;;18.63;100.00;96798.81;5026224;28;20450;-82
2023/08/01 08:59:57;;;;;;;10.33;1.43;;;18.30;99.90;;;18.69;100.00;96803.84;5024227;28;21337;-82
2023/08/01 09:02:28;;;;;;;5.30;1.87;;;18.30;99.90;;;18.67;100.00;96811.28;5024710;28;20505;-82
2023/08/01 09:04:59;;;;;;;2.40;1.37;;;18.20;99.90;;;18.68;100.00;96812.84;5023227;28;20524;-82
2023/08/01 09:07:38;;;;;;;2.00;1.47;;;18.20;99.90;;;18.72;100.00;96808.59;5023603;28;20458;-82
2023/08/01 09:10:11;;;;;;;2.20;1.50;;;18.30;99.90;;;18.61;100.00;96814.97;5023277;28;20541;-82
2023/08/01 09:12:40;;;;;;;3.93;1.30;;;18.20;99.90;;;18.66;100.00;96822.91;5022638;28;21017;-82
2023/08/01 09:15:13;;;;;;;2.57;1.50;;;18.10;99.90;;;18.59;100.00;96814.47;5022725;28;20480;-81
2023/08/01 09:17:51;;;;;;;2.50;1.37;;;18.10;99.90;;;18.67;100.00;96815.78;5022314;28;20811;-82
2023/08/01 09:20:21;;;;;;;4.43;1.43;;;18.20;99.90;;;18.72;100.00;96813.09;5022340;28;20450;-82
2023/08/01 09:22:53;;;;;;;2.50;1.27;;;18.30;99.90;;;18.72;100.00;96807.81;5022542;28;20549;-82
2023/08/01 09:25:33;;;;;;;4.50;1.50;;;18.20;99.90;;;18.69;100.00;96808.34;5022681;28;20465;-82
2023/08/01 09:28:02;;;;;;;1.67;1.30;;;18.20;99.90;;;18.71;100.00;96807.00;5022230;28;20473;-83
2023/08/01 09:30:33;;;;;;;2.07;1.47;;;18.10;99.90;;;18.69;100.00;96808.34;5024262;28;20472;-82
2023/08/01 09:33:03;;;;;;;3.47;1.43;;;18.20;99.90;;;18.66;100.00;96819.47;5024429;28;20558;-82
2023/08/01 09:35:40;;;;;;;2.43;1.60;;;18.20;99.90;;;18.69;100.00;96816.28;5023118;28;20949;-83
2023/08/01 09:38:12;;;;;;;3.17;1.70;;;18.20;99.90;;;18.71;100.00;96824.78;5023577;28;20465;-82
2023/08/01 09:40:43;;;;;;;3.90;1.30;;;18.30;99.90;;;18.80;100.00;96831.09;5022830;28;20466;-82
2023/08/01 09:43:15;;;;;;;2.97;1.40;;;18.30;99.90;;;18.92;100.00;96829.72;5022262;28;20511;-82
2023/08/01 09:45:54;;;;;;;5.20;1.40;;;18.40;99.90;;;18.93;100.00;96835.81;5023634;28;20464;-82
2023/08/01 09:48:26;;;;;;;4.40;1.77;;;18.40;99.90;;;18.82;100.00;96836.91;5023719;28;20493;-82
2023/08/01 09:51:09;;;;;;;1.60;1.40;;;18.50;99.90;;;18.81;100.00;96844.06;5024816;28;20485;-82
2023/08/01 09:53:52;;;;;;;2.10;1.40;;;18.50;99.90;;;18.89;100.00;96840.88;5037599;28;20546;-82
2023/08/01 09:56:24;;;;;;;1.70;1.50;;;18.40;99.90;;;18.89;100.00;96835.56;5022392;28;20469;-82
2023/08/01 09:58:57;;;;;;;2.80;1.50;;;18.50;99.90;;;18.92;100.00;96840.31;5023468;28;20470;-82
2023/08/01 10:01:27;;;;;;;2.27;1.57;;;18.40;99.90;;;18.92;100.00;96842.97;5023472;28;20469;-82
2023/08/01 10:03:59;;;;;;;2.90;1.20;;;18.50;99.90;;;18.88;100.00;96846.44;5020112;28;20501;-82
2023/08/01 10:06:34;;;;;;;2.07;1.30;;;18.50;99.90;;;18.86;100.00;96845.91;5024315;28;20984;-82
2023/08/01 10:09:07;;;;;;;4.60;1.87;;;18.40;99.90;;;18.87;100.00;96845.66;5023386;28;20457;-82
2023/08/01 10:11:40;;;;;;;4.00;1.60;;;18.40;99.90;;;18.95;100.00;96845.09;5022041;28;20471;-82
2023/08/01 10:14:10;;;;;;;2.97;1.77;;;18.50;99.90;;;19.02;100.00;96850.13;5024282;28;20469;-83
2023/08/01 10:16:41;;;;;;;3.67;1.70;;;18.50;99.90;;;19.03;100.00;96847.19;5023382;28;20934;-82
2023/08/01 10:19:12;;;;;;;1.77;1.10;;;18.50;99.90;;;19.05;100.00;96852.22;5022308;28;20490;-84
2023/08/01 10:21:44;;;;;;;4.50;1.87;;;18.60;99.90;;;19.05;100.00;96852.22;5021054;28;20467;-82
2023/08/01 10:24:17;;;;;;;2.90;1.90;;;18.50;99.90;;;19.10;100.00;96857.50;5021650;28;20615;-82
2023/08/01 10:26:47;;;;;;;4.33;1.47;;;18.50;99.90;;;19.19;100.00;96845.28;5021943;28;20463;-82